sensor_id;sensor_type;location;lat;lon;timestamp;P1;durP1;ratioP1;P2;durP2;ratioP2
79149;SDS011;68563;45.644;13.782;2023-06-04T00:01:05;8.65;;;5.22;;
79149;SDS011;68563;45.644;13.782;2023-06-04T00:03:30;6.80;;;5.82;;
79149;SDS011;68563;45.644;13.782;2023-06-04T00:05:56;7.93;;;6.15;;
79149;SDS011;68563;45.644;13.782;2023-06-04T00:08:22;9.45;;;6.18;;
79149;SDS011;68563;45.644;13.782;2023-06-04T00:10:47;7.25;;;6.10;;
79149;SDS011;68563;45.644;13.782;2023-06-04T00:13:13;7.97;;;5.88;;
79149;SDS011;68563;45.644;13.782;2023-06-04T00:15:38;7.93;;;6.20;;
79149;SDS011;68563;45.644;13.782;2023-06-04T00:18:04;8.18;;;5.70;;
79149;SDS011;68563;45.644;13.782;2023-06-04T00:20:29;7.40;;;5.57;;
79149;SDS011;68563;45.644;13.782;2023-06-04T00:22:55;6.43;;;5.57;;
79149;SDS011;68563;45.644;13.782;2023-06-04T00:25:20;6.60;;;5.50;;
79149;SDS011;68563;45.644;13.782;2023-06-04T00:27:45;7.55;;;6.13;;
79149;SDS011;68563;45.644;13.782;2023-06-04T00:30:11;8.52;;;5.80;;
79149;SDS011;68563;45.644;13.782;2023-06-04T00:32:37;8.80;;;6.35;;
79149;SDS011;68563;45.644;13.782;2023-06-04T00:35:02;7.28;;;6.00;;
79149;SDS011;68563;45.644;13.782;2023-06-04T00:37:28;9.45;;;6.13;;
79149;SDS011;68563;45.644;13.782;2023-06-04T00:39:54;11.13;;;6.15;;
79149;SDS011;68563;45.644;13.782;2023-06-04T00:42:19;7.90;;;5.78;;
79149;SDS011;68563;45.644;13.782;2023-06-04T00:44:45;7.57;;;5.57;;
79149;SDS011;68563;45.644;13.782;2023-06-04T00:47:14;8.32;;;6.20;;
79149;SDS011;68563;45.644;13.782;2023-06-04T00:49:41;11.77;;;6.22;;
79149;SDS011;68563;45.644;13.782;2023-06-04T00:52:09;8.40;;;5.80;;
79149;SDS011;68563;45.644;13.782;2023-06-04T00:54:35;7.82;;;5.68;;
79149;SDS011;68563;45.644;13.782;2023-06-04T00:57:03;7.18;;;5.97;;
79149;SDS011;68563;45.644;13.782;2023-06-04T00:59:29;7.53;;;5.93;;
79149;SDS011;68563;45.644;13.782;2023-06-04T01:02:01;8.02;;;6.03;;
79149;SDS011;68563;45.644;13.782;2023-06-04T01:04:34;9.10;;;5.43;;
79149;SDS011;68563;45.644;13.782;2023-06-04T01:07:07;7.38;;;6.28;;
79149;SDS011;68563;45.644;13.782;2023-06-04T01:09:34;8.10;;;5.93;;
79149;SDS011;68563;45.644;13.782;2023-06-04T01:12:05;8.00;;;6.05;;
79149;SDS011;68563;45.644;13.782;2023-06-04T01:14:31;11.32;;;5.93;;
79149;SDS011;68563;45.644;13.782;2023-06-04T01:16:59;7.63;;;6.05;;
79149;SDS011;68563;45.644;13.782;2023-06-04T01:23:06;13.20;;;6.00;;
79149;SDS011;68563;45.644;13.782;2023-06-04T01:25:17;7.60;;;6.07;;
79149;SDS011;68563;45.644;13.782;2023-06-04T01:27:49;7.50;;;6.10;;
79149;SDS011;68563;45.644;13.782;2023-06-04T01:30:26;10.88;;;5.95;;
79149;SDS011;68563;45.644;13.782;2023-06-04T01:33:00;7.75;;;6.20;;
79149;SDS011;68563;45.644;13.782;2023-06-04T01:35:29;9.52;;;6.45;;
79149;SDS011;68563;45.644;13.782;2023-06-04T01:37:57;8.30;;;5.93;;
79149;SDS011;68563;45.644;13.782;2023-06-04T01:40:23;7.03;;;6.15;;
79149;SDS011;68563;45.644;13.782;2023-06-04T01:42:50;9.55;;;5.93;;
79149;SDS011;68563;45.644;13.782;2023-06-04T01:45:16;11.30;;;6.47;;
79149;SDS011;68563;45.644;13.782;2023-06-04T01:47:41;7.75;;;5.75;;
79149;SDS011;68563;45.644;13.782;2023-06-04T01:50:07;9.07;;;6.57;;
79149;SDS011;68563;45.644;13.782;2023-06-04T01:52:40;6.60;;;5.90;;
79149;SDS011;68563;45.644;13.782;2023-06-04T01:55:07;7.30;;;6.03;;
79149;SDS011;68563;45.644;13.782;2023-06-04T01:57:34;8.98;;;6.50;;
79149;SDS011;68563;45.644;13.782;2023-06-04T02:00:03;8.45;;;6.05;;
79149;SDS011;68563;45.644;13.782;2023-06-04T02:02:32;7.78;;;5.97;;
79149;SDS011;68563;45.644;13.782;2023-06-04T02:04:58;7.95;;;6.10;;
79149;SDS011;68563;45.644;13.782;2023-06-04T02:07:23;10.50;;;6.15;;
79149;SDS011;68563;45.644;13.782;2023-06-04T02:09:49;10.27;;;6.57;;
79149;SDS011;68563;45.644;13.782;2023-06-04T02:12:15;10.05;;;6.13;;
79149;SDS011;68563;45.644;13.782;2023-06-04T02:14:41;7.72;;;6.10;;
79149;SDS011;68563;45.644;13.782;2023-06-04T02:17:07;8.77;;;5.82;;
79149;SDS011;68563;45.644;13.782;2023-06-04T02:19:40;7.15;;;5.28;;
79149;SDS011;68563;45.644;13.782;2023-06-04T02:22:12;8.00;;;5.63;;
79149;SDS011;68563;45.644;13.782;2023-06-04T02:24:38;8.65;;;4.97;;
79149;SDS011;68563;45.644;13.782;2023-06-04T02:27:07;8.02;;;5.47;;
79149;SDS011;68563;45.644;13.782;2023-06-04T02:29:33;8.80;;;6.05;;
79149;SDS011;68563;45.644;13.782;2023-06-04T02:31:59;12.32;;;6.40;;
79149;SDS011;68563;45.644;13.782;2023-06-04T02:34:25;7.82;;;5.78;;
79149;SDS011;68563;45.644;13.782;2023-06-04T02:36:50;9.35;;;5.82;;
79149;SDS011;68563;45.644;13.782;2023-06-04T02:39:19;7.47;;;6.20;;
79149;SDS011;68563;45.644;13.782;2023-06-04T02:41:44;8.30;;;5.88;;
79149;SDS011;68563;45.644;13.782;2023-06-04T02:44:10;9.25;;;5.75;;
79149;SDS011;68563;45.644;13.782;2023-06-04T02:46:36;9.07;;;5.80;;
79149;SDS011;68563;45.644;13.782;2023-06-04T02:49:02;7.53;;;5.53;;
79149;SDS011;68563;45.644;13.782;2023-06-04T02:51:27;7.78;;;6.00;;
79149;SDS011;68563;45.644;13.782;2023-06-04T02:53:53;7.65;;;5.40;;
79149;SDS011;68563;45.644;13.782;2023-06-04T02:56:19;8.35;;;6.03;;
79149;SDS011;68563;45.644;13.782;2023-06-04T02:58:52;7.05;;;5.88;;
79149;SDS011;68563;45.644;13.782;2023-06-04T03:01:27;9.15;;;5.70;;
79149;SDS011;68563;45.644;13.782;2023-06-04T03:03:53;8.80;;;5.63;;
79149;SDS011;68563;45.644;13.782;2023-06-04T03:06:20;6.43;;;5.18;;
79149;SDS011;68563;45.644;13.782;2023-06-04T03:08:47;7.03;;;5.88;;
79149;SDS011;68563;45.644;13.782;2023-06-04T03:11:13;7.40;;;5.63;;
79149;SDS011;68563;45.644;13.782;2023-06-04T03:13:38;8.63;;;5.47;;
79149;SDS011;68563;45.644;13.782;2023-06-04T03:16:04;7.03;;;5.45;;
79149;SDS011;68563;45.644;13.782;2023-06-04T03:18:34;7.22;;;5.93;;
79149;SDS011;68563;45.644;13.782;2023-06-04T03:21:04;8.07;;;5.60;;
79149;SDS011;68563;45.644;13.782;2023-06-04T03:23:30;7.10;;;5.90;;
79149;SDS011;68563;45.644;13.782;2023-06-04T03:25:56;8.75;;;5.63;;
79149;SDS011;68563;45.644;13.782;2023-06-04T03:28:21;7.90;;;5.40;;
79149;SDS011;68563;45.644;13.782;2023-06-04T03:30:47;7.90;;;5.63;;
79149;SDS011;68563;45.644;13.782;2023-06-04T03:33:12;6.90;;;5.43;;
79149;SDS011;68563;45.644;13.782;2023-06-04T03:35:39;7.05;;;5.47;;
79149;SDS011;68563;45.644;13.782;2023-06-04T03:38:05;5.85;;;5.25;;
79149;SDS011;68563;45.644;13.782;2023-06-04T03:40:31;7.10;;;5.45;;
79149;SDS011;68563;45.644;13.782;2023-06-04T03:42:56;8.43;;;5.55;;
79149;SDS011;68563;45.644;13.782;2023-06-04T03:45:21;8.65;;;5.82;;
79149;SDS011;68563;45.644;13.782;2023-06-04T03:47:47;8.10;;;5.70;;
79149;SDS011;68563;45.644;13.782;2023-06-04T03:50:12;9.85;;;5.50;;
79149;SDS011;68563;45.644;13.782;2023-06-04T03:52:38;7.28;;;5.43;;
79149;SDS011;68563;45.644;13.782;2023-06-04T03:55:03;9.38;;;5.43;;
79149;SDS011;68563;45.644;13.782;2023-06-04T03:57:29;6.43;;;5.25;;
79149;SDS011;68563;45.644;13.782;2023-06-04T03:59:54;6.00;;;4.80;;
79149;SDS011;68563;45.644;13.782;2023-06-04T04:02:20;9.93;;;5.72;;
79149;SDS011;68563;45.644;13.782;2023-06-04T04:04:45;10.82;;;6.50;;
79149;SDS011;68563;45.644;13.782;2023-06-04T04:07:11;9.02;;;6.10;;
79149;SDS011;68563;45.644;13.782;2023-06-04T04:09:37;9.15;;;5.45;;
79149;SDS011;68563;45.644;13.782;2023-06-04T04:12:02;7.82;;;5.40;;
79149;SDS011;68563;45.644;13.782;2023-06-04T04:14:28;9.60;;;5.75;;
79149;SDS011;68563;45.644;13.782;2023-06-04T04:16:54;6.30;;;4.75;;
79149;SDS011;68563;45.644;13.782;2023-06-04T04:19:20;6.75;;;4.90;;
79149;SDS011;68563;45.644;13.782;2023-06-04T04:21:45;6.68;;;5.30;;
79149;SDS011;68563;45.644;13.782;2023-06-04T04:24:22;7.40;;;5.38;;
79149;SDS011;68563;45.644;13.782;2023-06-04T04:26:54;6.20;;;5.22;;
79149;SDS011;68563;45.644;13.782;2023-06-04T04:29:20;7.10;;;5.63;;
79149;SDS011;68563;45.644;13.782;2023-06-04T04:31:48;6.63;;;5.75;;
79149;SDS011;68563;45.644;13.782;2023-06-04T04:34:14;8.40;;;5.72;;
79149;SDS011;68563;45.644;13.782;2023-06-04T04:36:40;8.48;;;5.60;;
79149;SDS011;68563;45.644;13.782;2023-06-04T04:39:05;8.23;;;5.72;;
79149;SDS011;68563;45.644;13.782;2023-06-04T04:41:31;8.25;;;5.22;;
79149;SDS011;68563;45.644;13.782;2023-06-04T04:44:02;7.97;;;5.13;;
79149;SDS011;68563;45.644;13.782;2023-06-04T04:46:31;12.32;;;5.88;;
79149;SDS011;68563;45.644;13.782;2023-06-04T04:48:56;8.15;;;5.30;;
79149;SDS011;68563;45.644;13.782;2023-06-04T04:51:22;6.60;;;5.53;;
79149;SDS011;68563;45.644;13.782;2023-06-04T04:53:47;8.80;;;5.40;;
79149;SDS011;68563;45.644;13.782;2023-06-04T04:56:13;8.07;;;5.50;;
79149;SDS011;68563;45.644;13.782;2023-06-04T04:58:39;8.18;;;5.55;;
79149;SDS011;68563;45.644;13.782;2023-06-04T05:01:04;7.53;;;5.88;;
79149;SDS011;68563;45.644;13.782;2023-06-04T05:03:30;7.10;;;5.45;;
79149;SDS011;68563;45.644;13.782;2023-06-04T05:05:55;10.18;;;5.93;;
79149;SDS011;68563;45.644;13.782;2023-06-04T05:08:24;6.22;;;5.18;;
79149;SDS011;68563;45.644;13.782;2023-06-04T05:10:50;5.70;;;5.10;;
79149;SDS011;68563;45.644;13.782;2023-06-04T05:13:15;7.75;;;5.25;;
79149;SDS011;68563;45.644;13.782;2023-06-04T05:15:47;8.23;;;5.82;;
79149;SDS011;68563;45.644;13.782;2023-06-04T05:18:13;9.80;;;5.35;;
79149;SDS011;68563;45.644;13.782;2023-06-04T05:20:41;8.20;;;5.32;;
79149;SDS011;68563;45.644;13.782;2023-06-04T05:23:08;7.85;;;5.20;;
79149;SDS011;68563;45.644;13.782;2023-06-04T05:25:33;9.30;;;5.57;;
79149;SDS011;68563;45.644;13.782;2023-06-04T05:27:58;7.40;;;5.53;;
79149;SDS011;68563;45.644;13.782;2023-06-04T05:30:24;5.70;;;5.10;;
79149;SDS011;68563;45.644;13.782;2023-06-04T05:32:50;8.65;;;5.53;;
79149;SDS011;68563;45.644;13.782;2023-06-04T05:35:15;6.03;;;5.30;;
79149;SDS011;68563;45.644;13.782;2023-06-04T05:37:44;7.25;;;5.22;;
79149;SDS011;68563;45.644;13.782;2023-06-04T05:40:37;10.40;;;5.55;;
79149;SDS011;68563;45.644;13.782;2023-06-04T05:43:03;8.07;;;5.03;;
79149;SDS011;68563;45.644;13.782;2023-06-04T05:45:28;8.50;;;5.63;;
79149;SDS011;68563;45.644;13.782;2023-06-04T05:47:54;8.20;;;5.05;;
79149;SDS011;68563;45.644;13.782;2023-06-04T05:50:19;6.53;;;5.93;;
79149;SDS011;68563;45.644;13.782;2023-06-04T05:52:45;10.55;;;5.55;;
79149;SDS011;68563;45.644;13.782;2023-06-04T05:55:10;6.80;;;5.50;;
79149;SDS011;68563;45.644;13.782;2023-06-04T05:57:36;7.80;;;5.45;;
79149;SDS011;68563;45.644;13.782;2023-06-04T06:00:01;7.10;;;5.40;;
79149;SDS011;68563;45.644;13.782;2023-06-04T06:02:31;7.97;;;5.75;;
79149;SDS011;68563;45.644;13.782;2023-06-04T06:04:57;6.32;;;5.40;;
79149;SDS011;68563;45.644;13.782;2023-06-04T06:07:22;7.68;;;5.68;;
79149;SDS011;68563;45.644;13.782;2023-06-04T06:09:48;7.65;;;5.57;;
79149;SDS011;68563;45.644;13.782;2023-06-04T06:12:13;7.53;;;5.28;;
79149;SDS011;68563;45.644;13.782;2023-06-04T06:14:38;9.00;;;5.30;;
79149;SDS011;68563;45.644;13.782;2023-06-04T06:17:04;7.45;;;5.28;;
79149;SDS011;68563;45.644;13.782;2023-06-04T06:19:29;8.18;;;5.15;;
79149;SDS011;68563;45.644;13.782;2023-06-04T06:21:54;6.88;;;5.28;;
79149;SDS011;68563;45.644;13.782;2023-06-04T06:24:20;7.90;;;5.22;;
79149;SDS011;68563;45.644;13.782;2023-06-04T06:26:46;7.13;;;5.30;;
79149;SDS011;68563;45.644;13.782;2023-06-04T06:29:11;7.68;;;5.28;;
79149;SDS011;68563;45.644;13.782;2023-06-04T06:31:36;6.97;;;5.25;;
79149;SDS011;68563;45.644;13.782;2023-06-04T06:34:02;6.13;;;5.13;;
79149;SDS011;68563;45.644;13.782;2023-06-04T06:36:27;9.60;;;5.28;;
79149;SDS011;68563;45.644;13.782;2023-06-04T06:38:53;8.52;;;5.30;;
79149;SDS011;68563;45.644;13.782;2023-06-04T06:41:19;8.10;;;5.20;;
79149;SDS011;68563;45.644;13.782;2023-06-04T06:43:44;7.28;;;5.72;;
79149;SDS011;68563;45.644;13.782;2023-06-04T06:46:09;6.30;;;5.57;;
79149;SDS011;68563;45.644;13.782;2023-06-04T06:48:36;8.02;;;5.70;;
79149;SDS011;68563;45.644;13.782;2023-06-04T06:51:01;7.88;;;5.60;;
79149;SDS011;68563;45.644;13.782;2023-06-04T06:53:27;8.23;;;5.43;;
79149;SDS011;68563;45.644;13.782;2023-06-04T06:55:53;7.07;;;5.18;;
79149;SDS011;68563;45.644;13.782;2023-06-04T06:58:19;7.88;;;5.03;;
79149;SDS011;68563;45.644;13.782;2023-06-04T07:00:44;6.63;;;5.40;;
79149;SDS011;68563;45.644;13.782;2023-06-04T07:03:09;5.72;;;4.90;;
79149;SDS011;68563;45.644;13.782;2023-06-04T07:05:35;7.78;;;5.50;;
79149;SDS011;68563;45.644;13.782;2023-06-04T07:08:00;8.70;;;5.40;;
79149;SDS011;68563;45.644;13.782;2023-06-04T07:10:26;10.82;;;5.93;;
79149;SDS011;68563;45.644;13.782;2023-06-04T07:12:52;7.38;;;5.45;;
79149;SDS011;68563;45.644;13.782;2023-06-04T07:15:17;8.00;;;5.30;;
79149;SDS011;68563;45.644;13.782;2023-06-04T07:17:43;10.75;;;5.55;;
79149;SDS011;68563;45.644;13.782;2023-06-04T07:20:09;9.32;;;6.20;;
79149;SDS011;68563;45.644;13.782;2023-06-04T07:22:34;7.40;;;5.72;;
79149;SDS011;68563;45.644;13.782;2023-06-04T07:25:00;7.55;;;5.78;;
79149;SDS011;68563;45.644;13.782;2023-06-04T07:27:26;7.57;;;5.63;;
79149;SDS011;68563;45.644;13.782;2023-06-04T07:29:52;9.13;;;6.35;;
79149;SDS011;68563;45.644;13.782;2023-06-04T07:32:17;7.85;;;6.10;;
79149;SDS011;68563;45.644;13.782;2023-06-04T07:34:43;9.07;;;6.18;;
79149;SDS011;68563;45.644;13.782;2023-06-04T07:37:08;7.47;;;5.68;;
79149;SDS011;68563;45.644;13.782;2023-06-04T07:39:34;7.13;;;5.53;;
79149;SDS011;68563;45.644;13.782;2023-06-04T07:42:00;6.63;;;5.82;;
79149;SDS011;68563;45.644;13.782;2023-06-04T07:44:25;8.93;;;5.53;;
79149;SDS011;68563;45.644;13.782;2023-06-04T07:46:51;8.35;;;5.63;;
79149;SDS011;68563;45.644;13.782;2023-06-04T07:49:16;8.07;;;6.13;;
79149;SDS011;68563;45.644;13.782;2023-06-04T07:51:41;6.28;;;5.63;;
79149;SDS011;68563;45.644;13.782;2023-06-04T07:54:07;7.70;;;5.05;;
79149;SDS011;68563;45.644;13.782;2023-06-04T07:56:32;13.35;;;6.13;;
79149;SDS011;68563;45.644;13.782;2023-06-04T07:58:57;6.88;;;5.85;;
79149;SDS011;68563;45.644;13.782;2023-06-04T08:01:23;6.50;;;5.80;;
79149;SDS011;68563;45.644;13.782;2023-06-04T08:03:49;7.63;;;6.07;;
79149;SDS011;68563;45.644;13.782;2023-06-04T08:06:15;7.93;;;6.43;;
79149;SDS011;68563;45.644;13.782;2023-06-04T08:08:43;8.48;;;5.90;;
79149;SDS011;68563;45.644;13.782;2023-06-04T08:11:13;9.13;;;5.95;;
79149;SDS011;68563;45.644;13.782;2023-06-04T08:13:39;9.48;;;6.55;;
79149;SDS011;68563;45.644;13.782;2023-06-04T08:16:05;8.38;;;7.03;;
79149;SDS011;68563;45.644;13.782;2023-06-04T08:18:31;9.20;;;6.95;;
79149;SDS011;68563;45.644;13.782;2023-06-04T08:20:56;8.40;;;6.80;;
79149;SDS011;68563;45.644;13.782;2023-06-04T08:23:22;9.13;;;6.40;;
79149;SDS011;68563;45.644;13.782;2023-06-04T08:25:47;9.25;;;6.63;;
79149;SDS011;68563;45.644;13.782;2023-06-04T08:28:13;8.05;;;6.45;;
79149;SDS011;68563;45.644;13.782;2023-06-04T08:30:40;7.43;;;6.22;;
79149;SDS011;68563;45.644;13.782;2023-06-04T08:33:07;8.15;;;6.20;;
79149;SDS011;68563;45.644;13.782;2023-06-04T08:35:32;7.40;;;6.30;;
79149;SDS011;68563;45.644;13.782;2023-06-04T08:37:57;8.68;;;6.10;;
79149;SDS011;68563;45.644;13.782;2023-06-04T08:40:24;9.30;;;6.60;;
79149;SDS011;68563;45.644;13.782;2023-06-04T08:42:50;8.30;;;6.32;;
79149;SDS011;68563;45.644;13.782;2023-06-04T08:45:17;7.80;;;6.00;;
79149;SDS011;68563;45.644;13.782;2023-06-04T08:47:48;7.15;;;5.93;;
79149;SDS011;68563;45.644;13.782;2023-06-04T08:50:15;8.07;;;6.20;;
79149;SDS011;68563;45.644;13.782;2023-06-04T08:52:43;9.00;;;5.75;;
79149;SDS011;68563;45.644;13.782;2023-06-04T08:55:08;8.30;;;5.78;;
79149;SDS011;68563;45.644;13.782;2023-06-04T08:57:38;7.13;;;6.05;;
79149;SDS011;68563;45.644;13.782;2023-06-04T09:00:04;9.88;;;6.55;;
79149;SDS011;68563;45.644;13.782;2023-06-04T09:02:32;7.57;;;6.35;;
79149;SDS011;68563;45.644;13.782;2023-06-04T09:05:01;7.55;;;5.90;;
79149;SDS011;68563;45.644;13.782;2023-06-04T09:07:28;8.57;;;6.43;;
79149;SDS011;68563;45.644;13.782;2023-06-04T09:09:56;8.30;;;5.72;;
79149;SDS011;68563;45.644;13.782;2023-06-04T09:12:22;8.00;;;5.78;;
79149;SDS011;68563;45.644;13.782;2023-06-04T09:14:49;7.32;;;6.63;;
79149;SDS011;68563;45.644;13.782;2023-06-04T09:17:23;9.73;;;5.97;;
79149;SDS011;68563;45.644;13.782;2023-06-04T09:19:50;7.15;;;5.75;;
79149;SDS011;68563;45.644;13.782;2023-06-04T09:22:15;9.77;;;5.80;;
79149;SDS011;68563;45.644;13.782;2023-06-04T09:24:41;11.88;;;6.45;;
79149;SDS011;68563;45.644;13.782;2023-06-04T09:27:10;7.97;;;5.93;;
79149;SDS011;68563;45.644;13.782;2023-06-04T09:29:40;7.88;;;5.60;;
79149;SDS011;68563;45.644;13.782;2023-06-04T09:32:14;7.50;;;5.88;;
79149;SDS011;68563;45.644;13.782;2023-06-04T09:34:39;8.55;;;5.63;;
79149;SDS011;68563;45.644;13.782;2023-06-04T09:37:13;7.18;;;5.78;;
79149;SDS011;68563;45.644;13.782;2023-06-04T09:39:41;6.93;;;6.22;;
79149;SDS011;68563;45.644;13.782;2023-06-04T09:42:06;9.35;;;6.15;;
79149;SDS011;68563;45.644;13.782;2023-06-04T09:44:42;7.45;;;5.60;;
79149;SDS011;68563;45.644;13.782;2023-06-04T09:47:08;7.38;;;5.72;;
79149;SDS011;68563;45.644;13.782;2023-06-04T09:49:46;8.85;;;6.30;;
79149;SDS011;68563;45.644;13.782;2023-06-04T09:52:13;6.68;;;5.97;;
79149;SDS011;68563;45.644;13.782;2023-06-04T09:54:39;8.25;;;6.10;;
79149;SDS011;68563;45.644;13.782;2023-06-04T09:57:16;8.60;;;5.65;;
79149;SDS011;68563;45.644;13.782;2023-06-04T09:59:44;7.20;;;5.60;;
79149;SDS011;68563;45.644;13.782;2023-06-04T10:02:11;8.00;;;6.10;;
79149;SDS011;68563;45.644;13.782;2023-06-04T10:04:41;8.27;;;5.50;;
79149;SDS011;68563;45.644;13.782;2023-06-04T10:07:11;7.30;;;5.72;;
79149;SDS011;68563;45.644;13.782;2023-06-04T10:09:40;10.07;;;5.78;;
79149;SDS011;68563;45.644;13.782;2023-06-04T10:12:10;7.68;;;5.40;;
79149;SDS011;68563;45.644;13.782;2023-06-04T10:14:52;7.55;;;5.60;;
79149;SDS011;68563;45.644;13.782;2023-06-04T10:17:22;8.63;;;5.07;;
79149;SDS011;68563;45.644;13.782;2023-06-04T10:19:49;6.55;;;5.30;;
79149;SDS011;68563;45.644;13.782;2023-06-04T10:22:18;7.07;;;4.95;;
79149;SDS011;68563;45.644;13.782;2023-06-04T10:24:44;6.75;;;5.40;;
79149;SDS011;68563;45.644;13.782;2023-06-04T10:27:10;8.60;;;5.53;;
79149;SDS011;68563;45.644;13.782;2023-06-04T10:29:37;10.73;;;5.30;;
79149;SDS011;68563;45.644;13.782;2023-06-04T10:32:04;5.43;;;4.60;;
79149;SDS011;68563;45.644;13.782;2023-06-04T10:34:30;5.90;;;5.30;;
79149;SDS011;68563;45.644;13.782;2023-06-04T10:36:56;6.10;;;4.80;;
79149;SDS011;68563;45.644;13.782;2023-06-04T10:39:25;7.50;;;5.78;;
79149;SDS011;68563;45.644;13.782;2023-06-04T10:42:02;5.72;;;4.90;;
79149;SDS011;68563;45.644;13.782;2023-06-04T10:44:32;8.35;;;5.28;;
79149;SDS011;68563;45.644;13.782;2023-06-04T10:47:26;6.00;;;5.38;;
79149;SDS011;68563;45.644;13.782;2023-06-04T10:49:54;9.02;;;5.50;;
79149;SDS011;68563;45.644;13.782;2023-06-04T10:52:20;7.90;;;5.22;;
79149;SDS011;68563;45.644;13.782;2023-06-04T10:54:47;5.90;;;5.20;;
79149;SDS011;68563;45.644;13.782;2023-06-04T10:57:18;5.97;;;5.38;;
79149;SDS011;68563;45.644;13.782;2023-06-04T10:59:57;6.40;;;5.72;;
79149;SDS011;68563;45.644;13.782;2023-06-04T11:02:24;12.45;;;5.90;;
79149;SDS011;68563;45.644;13.782;2023-06-04T11:05:02;7.45;;;5.50;;
79149;SDS011;68563;45.644;13.782;2023-06-04T11:07:41;6.20;;;5.60;;
79149;SDS011;68563;45.644;13.782;2023-06-04T11:10:11;7.43;;;5.63;;
79149;SDS011;68563;45.644;13.782;2023-06-04T11:12:44;7.53;;;5.50;;
79149;SDS011;68563;45.644;13.782;2023-06-04T11:15:16;8.50;;;5.72;;
79149;SDS011;68563;45.644;13.782;2023-06-04T11:17:48;6.88;;;5.70;;
79149;SDS011;68563;45.644;13.782;2023-06-04T11:20:18;5.55;;;4.55;;
79149;SDS011;68563;45.644;13.782;2023-06-04T11:22:51;6.57;;;4.93;;
79149;SDS011;68563;45.644;13.782;2023-06-04T11:25:17;6.00;;;4.70;;
79149;SDS011;68563;45.644;13.782;2023-06-04T11:27:42;11.02;;;5.72;;
79149;SDS011;68563;45.644;13.782;2023-06-04T11:30:08;5.78;;;4.53;;
79149;SDS011;68563;45.644;13.782;2023-06-04T11:32:34;5.85;;;4.72;;
79149;SDS011;68563;45.644;13.782;2023-06-04T11:35:03;5.18;;;4.47;;
79149;SDS011;68563;45.644;13.782;2023-06-04T11:37:32;7.90;;;4.85;;
79149;SDS011;68563;45.644;13.782;2023-06-04T11:39:58;6.78;;;5.05;;
79149;SDS011;68563;45.644;13.782;2023-06-04T11:42:25;6.82;;;5.25;;
79149;SDS011;68563;45.644;13.782;2023-06-04T11:44:58;5.85;;;4.75;;
79149;SDS011;68563;45.644;13.782;2023-06-04T11:47:24;8.00;;;5.30;;
79149;SDS011;68563;45.644;13.782;2023-06-04T11:49:56;7.22;;;4.80;;
79149;SDS011;68563;45.644;13.782;2023-06-04T11:52:22;9.35;;;5.20;;
79149;SDS011;68563;45.644;13.782;2023-06-04T11:54:48;6.10;;;5.28;;
79149;SDS011;68563;45.644;13.782;2023-06-04T11:57:13;6.65;;;4.97;;
79149;SDS011;68563;45.644;13.782;2023-06-04T11:59:39;7.05;;;5.07;;
79149;SDS011;68563;45.644;13.782;2023-06-04T12:02:05;5.10;;;4.60;;
79149;SDS011;68563;45.644;13.782;2023-06-04T12:04:32;7.03;;;5.18;;
79149;SDS011;68563;45.644;13.782;2023-06-04T12:06:58;6.22;;;5.43;;
79149;SDS011;68563;45.644;13.782;2023-06-04T12:09:29;7.53;;;5.20;;
79149;SDS011;68563;45.644;13.782;2023-06-04T12:12:04;6.35;;;5.50;;
79149;SDS011;68563;45.644;13.782;2023-06-04T12:14:31;6.95;;;5.30;;
79149;SDS011;68563;45.644;13.782;2023-06-04T12:16:59;7.35;;;5.53;;
79149;SDS011;68563;45.644;13.782;2023-06-04T12:19:27;6.22;;;5.63;;
79149;SDS011;68563;45.644;13.782;2023-06-04T12:22:03;8.23;;;5.80;;
79149;SDS011;68563;45.644;13.782;2023-06-04T12:24:33;6.72;;;5.63;;
79149;SDS011;68563;45.644;13.782;2023-06-04T12:27:03;7.07;;;5.68;;
79149;SDS011;68563;45.644;13.782;2023-06-04T12:29:31;7.40;;;5.25;;
79149;SDS011;68563;45.644;13.782;2023-06-04T12:32:04;10.07;;;5.85;;
79149;SDS011;68563;45.644;13.782;2023-06-04T12:34:37;6.55;;;5.53;;
79149;SDS011;68563;45.644;13.782;2023-06-04T12:37:03;6.15;;;5.53;;
79149;SDS011;68563;45.644;13.782;2023-06-04T12:39:31;5.20;;;4.70;;
79149;SDS011;68563;45.644;13.782;2023-06-04T12:42:05;6.05;;;4.88;;
79149;SDS011;68563;45.644;13.782;2023-06-04T12:44:32;5.20;;;4.45;;
79149;SDS011;68563;45.644;13.782;2023-06-04T12:46:59;4.93;;;3.90;;
79149;SDS011;68563;45.644;13.782;2023-06-04T12:49:25;4.07;;;3.40;;
79149;SDS011;68563;45.644;13.782;2023-06-04T12:51:51;3.00;;;2.65;;
79149;SDS011;68563;45.644;13.782;2023-06-04T12:54:17;3.20;;;2.90;;
79149;SDS011;68563;45.644;13.782;2023-06-04T12:56:43;4.03;;;2.97;;
79149;SDS011;68563;45.644;13.782;2023-06-04T12:59:08;3.83;;;3.38;;
79149;SDS011;68563;45.644;13.782;2023-06-04T13:01:34;3.97;;;3.58;;
79149;SDS011;68563;45.644;13.782;2023-06-04T13:04:00;3.10;;;2.80;;
79149;SDS011;68563;45.644;13.782;2023-06-04T13:06:25;4.97;;;4.07;;
79149;SDS011;68563;45.644;13.782;2023-06-04T13:08:51;6.15;;;3.45;;
79149;SDS011;68563;45.644;13.782;2023-06-04T13:11:16;4.40;;;3.65;;
79149;SDS011;68563;45.644;13.782;2023-06-04T13:13:42;4.20;;;3.22;;
79149;SDS011;68563;45.644;13.782;2023-06-04T13:16:08;3.22;;;2.90;;
79149;SDS011;68563;45.644;13.782;2023-06-04T13:18:34;3.95;;;3.25;;
79149;SDS011;68563;45.644;13.782;2023-06-04T13:20:59;4.80;;;3.00;;
79149;SDS011;68563;45.644;13.782;2023-06-04T13:23:24;5.35;;;3.17;;
79149;SDS011;68563;45.644;13.782;2023-06-04T13:25:50;3.25;;;2.95;;
79149;SDS011;68563;45.644;13.782;2023-06-04T13:28:15;4.00;;;3.00;;
79149;SDS011;68563;45.644;13.782;2023-06-04T13:30:42;4.60;;;3.35;;
79149;SDS011;68563;45.644;13.782;2023-06-04T13:33:07;3.78;;;3.13;;
79149;SDS011;68563;45.644;13.782;2023-06-04T13:35:33;4.15;;;3.47;;
79149;SDS011;68563;45.644;13.782;2023-06-04T13:37:59;4.95;;;2.90;;
79149;SDS011;68563;45.644;13.782;2023-06-04T13:40:24;4.15;;;3.45;;
79149;SDS011;68563;45.644;13.782;2023-06-04T13:42:50;4.40;;;4.00;;
79149;SDS011;68563;45.644;13.782;2023-06-04T13:45:15;4.13;;;3.72;;
79149;SDS011;68563;45.644;13.782;2023-06-04T13:47:45;4.30;;;3.90;;
79149;SDS011;68563;45.644;13.782;2023-06-04T13:50:13;4.90;;;3.22;;
79149;SDS011;68563;45.644;13.782;2023-06-04T13:52:38;6.50;;;4.05;;
79149;SDS011;68563;45.644;13.782;2023-06-04T13:55:04;6.10;;;3.90;;
79149;SDS011;68563;45.644;13.782;2023-06-04T13:57:29;4.20;;;3.80;;
79149;SDS011;68563;45.644;13.782;2023-06-04T13:59:55;5.90;;;3.75;;
79149;SDS011;68563;45.644;13.782;2023-06-04T14:02:20;3.88;;;3.55;;
79149;SDS011;68563;45.644;13.782;2023-06-04T14:04:46;5.38;;;3.95;;
79149;SDS011;68563;45.644;13.782;2023-06-04T14:07:11;4.47;;;3.60;;
79149;SDS011;68563;45.644;13.782;2023-06-04T14:09:36;5.20;;;4.05;;
79149;SDS011;68563;45.644;13.782;2023-06-04T14:12:02;4.00;;;3.60;;
79149;SDS011;68563;45.644;13.782;2023-06-04T14:14:28;3.90;;;3.60;;
79149;SDS011;68563;45.644;13.782;2023-06-04T14:17:01;4.70;;;3.90;;
79149;SDS011;68563;45.644;13.782;2023-06-04T14:19:29;3.67;;;3.30;;
79149;SDS011;68563;45.644;13.782;2023-06-04T14:21:55;4.07;;;3.67;;
79149;SDS011;68563;45.644;13.782;2023-06-04T14:24:20;4.95;;;3.53;;
79149;SDS011;68563;45.644;13.782;2023-06-04T14:26:47;4.38;;;3.92;;
79149;SDS011;68563;45.644;13.782;2023-06-04T14:29:13;4.05;;;3.65;;
79149;SDS011;68563;45.644;13.782;2023-06-04T14:31:39;4.45;;;3.78;;
79149;SDS011;68563;45.644;13.782;2023-06-04T14:34:05;5.03;;;4.00;;
79149;SDS011;68563;45.644;13.782;2023-06-04T14:36:32;5.78;;;4.05;;